createdAt,value
2019-05-03T00:01:58.109Z,4.50
2019-05-03T00:04:26.851Z,5.70
2019-05-03T00:06:55.641Z,4.10
2019-05-03T00:09:24.550Z,4.83
2019-05-03T00:11:53.319Z,5.67
2019-05-03T00:14:22.156Z,3.40
2019-05-03T00:16:52.220Z,3.70
2019-05-03T00:19:21.937Z,4.30
2019-05-03T00:21:52.553Z,4.40
2019-05-03T00:24:22.636Z,3.57
2019-05-03T00:26:51.713Z,3.70
2019-05-03T00:29:22.032Z,3.40
2019-05-03T00:31:51.725Z,3.67
2019-05-03T00:34:22.247Z,3.72
2019-05-03T00:36:55.294Z,3.62
2019-05-03T00:39:37.527Z,3.73
2019-05-03T00:42:06.385Z,4.03
2019-05-03T00:44:35.215Z,4.13
2019-05-03T00:47:03.965Z,3.30
2019-05-03T00:49:32.843Z,4.00
2019-05-03T00:52:02.319Z,4.10
2019-05-03T00:54:31.737Z,4.17
2019-05-03T00:57:02.527Z,3.67
2019-05-03T00:59:32.680Z,3.50
2019-05-03T01:02:02.675Z,2.77
2019-05-03T01:04:31.822Z,2.67
2019-05-03T01:07:02.242Z,3.60
2019-05-03T01:09:31.733Z,4.70
2019-05-03T01:12:01.954Z,3.93
2019-05-03T01:14:31.642Z,4.97
2019-05-03T01:17:02.560Z,3.13
2019-05-03T01:19:32.825Z,2.73
2019-05-03T01:22:02.026Z,3.10
2019-05-03T01:24:32.294Z,3.33
2019-05-03T01:27:01.949Z,2.97
2019-05-03T01:29:32.210Z,2.33
2019-05-03T01:32:02.296Z,2.37
2019-05-03T01:34:32.625Z,2.97
2019-05-03T01:37:02.581Z,2.63
2019-05-03T01:39:31.800Z,2.40
2019-05-03T01:42:02.494Z,2.80
2019-05-03T01:44:32.700Z,2.23
2019-05-03T01:47:03.227Z,2.70
2019-05-03T01:49:33.544Z,3.27
2019-05-03T01:52:16.114Z,2.10
2019-05-03T01:54:44.854Z,2.77
2019-05-03T01:57:13.651Z,2.42
2019-05-03T01:59:42.654Z,2.70
2019-05-03T02:02:13.934Z,2.60
2019-05-03T02:04:44.328Z,2.47
2019-05-03T02:07:13.169Z,2.40
2019-05-03T02:09:41.928Z,1.90
2019-05-03T02:12:12.632Z,2.75
2019-05-03T02:14:42.247Z,3.60
2019-05-03T02:17:12.392Z,2.83
2019-05-03T02:19:42.198Z,2.23
2019-05-03T02:22:12.109Z,2.30
2019-05-03T02:24:42.268Z,2.70
2019-05-03T02:27:12.716Z,1.80
2019-05-03T02:29:41.901Z,2.53
2019-05-03T02:32:13.111Z,2.00
2019-05-03T02:34:43.892Z,2.10
2019-05-03T02:37:13.897Z,1.90
2019-05-03T02:39:42.789Z,1.97
2019-05-03T02:42:12.072Z,2.70
2019-05-03T02:44:41.257Z,2.10
2019-05-03T02:47:15.924Z,2.40
2019-05-03T02:49:46.379Z,2.07
2019-05-03T02:52:35.798Z,2.37
2019-05-03T02:55:10.460Z,1.70
2019-05-03T02:57:39.254Z,1.73
2019-05-03T03:00:10.425Z,1.77
2019-05-03T03:02:40.897Z,1.67
2019-05-03T03:05:10.202Z,2.60
2019-05-03T03:07:40.643Z,2.20
2019-05-03T03:10:09.756Z,2.47
2019-05-03T03:12:42.327Z,1.53
2019-05-03T03:15:11.207Z,1.30
2019-05-03T03:17:41.786Z,2.40
2019-05-03T03:20:11.033Z,2.03
2019-05-03T03:22:45.303Z,2.30
2019-05-03T03:25:17.638Z,2.10
2019-05-03T03:27:48.162Z,1.80
2019-05-03T03:30:39.474Z,1.98
2019-05-03T03:33:11.233Z,2.13
2019-05-03T03:35:41.309Z,2.30
2019-05-03T03:38:10.289Z,2.73
2019-05-03T03:40:40.582Z,2.30
2019-05-03T03:43:10.880Z,1.60
2019-05-03T03:45:39.908Z,2.30
2019-05-03T03:48:10.748Z,3.00
2019-05-03T03:50:45.591Z,3.10
2019-05-03T03:53:15.276Z,2.22
2019-05-03T03:55:46.429Z,2.60
2019-05-03T03:58:21.957Z,3.20
2019-05-03T04:00:46.880Z,2.13
2019-05-03T04:03:15.984Z,2.37
2019-05-03T04:05:55.602Z,2.20
2019-05-03T04:08:25.841Z,2.53
2019-05-03T04:10:55.959Z,2.10
2019-05-03T04:13:25.666Z,2.43
2019-05-03T04:16:12.308Z,2.20
2019-05-03T04:18:45.429Z,3.03
2019-05-03T04:21:16.047Z,1.93
2019-05-03T04:23:45.867Z,2.40
2019-05-03T04:26:16.332Z,3.60
2019-05-03T04:28:45.484Z,2.27
2019-05-03T04:31:15.251Z,3.03
2019-05-03T04:33:47.350Z,3.07
2019-05-03T04:36:16.698Z,2.27
2019-05-03T04:38:45.700Z,2.93
2019-05-03T04:41:15.918Z,2.20
2019-05-03T04:43:45.983Z,2.23
2019-05-03T04:46:22.255Z,3.58
2019-05-03T04:48:51.919Z,2.23
2019-05-03T04:51:20.737Z,1.60
2019-05-03T04:53:51.165Z,2.13
2019-05-03T04:56:19.901Z,2.20
2019-05-03T04:58:48.781Z,1.87
2019-05-03T05:01:17.511Z,1.63
2019-05-03T05:03:46.397Z,1.70
2019-05-03T05:06:16.035Z,1.77
2019-05-03T05:08:46.094Z,1.27
2019-05-03T05:11:17.834Z,1.62
2019-05-03T05:14:00.206Z,1.63
2019-05-03T05:16:29.951Z,1.80
2019-05-03T05:19:06.033Z,1.70
2019-05-03T05:21:39.513Z,2.03
2019-05-03T05:24:08.259Z,2.33
2019-05-03T05:26:44.783Z,2.07
2019-05-03T05:29:18.205Z,1.80
2019-05-03T05:31:46.934Z,1.73
2019-05-03T05:34:15.714Z,1.87
2019-05-03T05:36:45.058Z,1.77
2019-05-03T05:39:18.502Z,2.20
2019-05-03T05:41:45.990Z,1.50
2019-05-03T05:44:14.780Z,1.70
2019-05-03T05:46:51.161Z,1.13
2019-05-03T05:49:45.965Z,1.40
2019-05-03T05:52:15.480Z,1.60
2019-05-03T05:54:45.999Z,2.00
2019-05-03T05:57:25.701Z,1.87
2019-05-03T05:59:56.104Z,1.67
2019-05-03T06:02:25.380Z,1.57
2019-05-03T06:04:54.457Z,1.33
2019-05-03T06:07:30.637Z,1.40
2019-05-03T06:10:07.191Z,2.73
2019-05-03T06:12:45.301Z,1.83
2019-05-03T06:15:31.527Z,1.75
2019-05-03T06:18:01.889Z,1.57
2019-05-03T06:20:34.977Z,1.70
2019-05-03T06:23:05.367Z,1.70
2019-05-03T06:25:35.763Z,1.63
2019-05-03T06:28:17.663Z,1.60
2019-05-03T06:30:41.805Z,1.80
2019-05-03T06:33:10.550Z,1.60
2019-05-03T06:35:39.321Z,2.10
2019-05-03T06:38:08.075Z,1.77
2019-05-03T06:40:36.888Z,1.50
2019-05-03T06:43:09.727Z,1.60
2019-05-03T06:45:36.129Z,1.57
2019-05-03T06:48:05.559Z,1.70
2019-05-03T06:50:34.807Z,1.73
2019-05-03T06:53:05.797Z,1.40
2019-05-03T06:55:35.103Z,1.93
2019-05-03T06:58:05.249Z,1.70
2019-05-03T07:00:35.598Z,1.77
2019-05-03T07:03:07.209Z,1.98
2019-05-03T07:05:49.647Z,1.73
2019-05-03T07:08:38.060Z,1.37
2019-05-03T07:11:08.287Z,1.60
2019-05-03T07:13:37.083Z,1.57
2019-05-03T07:16:05.891Z,1.47
2019-05-03T07:18:35.150Z,2.20
2019-05-03T07:21:04.870Z,1.67
2019-05-03T07:23:34.965Z,1.73
2019-05-03T07:26:05.363Z,1.77
2019-05-03T07:28:46.442Z,2.10
2019-05-03T07:31:04.966Z,1.80
2019-05-03T07:33:35.192Z,1.67
2019-05-03T07:36:05.388Z,1.30
2019-05-03T07:38:35.003Z,1.50
2019-05-03T07:41:05.254Z,1.73
2019-05-03T07:43:36.111Z,1.37
2019-05-03T07:46:05.710Z,1.92
2019-05-03T07:48:35.346Z,1.40
2019-05-03T07:51:05.615Z,1.20
2019-05-03T07:53:34.943Z,1.60
2019-05-03T07:56:05.489Z,1.27
2019-05-03T07:58:38.663Z,1.43
2019-05-03T08:01:10.103Z,1.37
2019-05-03T08:03:39.056Z,1.03
2019-05-03T08:06:07.810Z,2.13
2019-05-03T08:08:36.542Z,1.70
2019-05-03T08:11:05.464Z,1.20
2019-05-03T08:13:35.551Z,1.60
2019-05-03T08:16:05.841Z,1.40
2019-05-03T08:18:35.464Z,1.70
2019-05-03T08:21:05.779Z,1.10
2019-05-03T08:23:35.402Z,1.03
2019-05-03T08:26:06.104Z,1.10
2019-05-03T08:28:34.971Z,1.53
2019-05-03T08:31:23.901Z,1.17
2019-05-03T08:33:55.340Z,1.23
2019-05-03T08:36:24.774Z,2.20
2019-05-03T08:38:56.101Z,1.50
2019-05-03T08:41:25.685Z,1.20
2019-05-03T08:43:54.985Z,1.33
2019-05-03T08:46:25.323Z,1.80
2019-05-03T08:48:54.839Z,1.10
2019-05-03T08:51:24.970Z,2.23
2019-05-03T08:53:55.996Z,1.10
2019-05-03T08:56:24.679Z,1.20
2019-05-03T08:58:55.334Z,0.73
2019-05-03T09:01:25.208Z,1.60
2019-05-03T09:03:55.858Z,1.80
2019-05-03T09:06:24.902Z,1.13
2019-05-03T09:08:56.919Z,1.30
2019-05-03T09:11:33.306Z,1.13
2019-05-03T09:14:02.043Z,1.10
2019-05-03T09:16:30.808Z,1.30
2019-05-03T09:18:59.600Z,1.17
2019-05-03T09:21:28.488Z,1.27
2019-05-03T09:23:57.232Z,1.50
2019-05-03T09:26:29.165Z,1.00
2019-05-03T09:28:56.463Z,1.17
2019-05-03T09:31:25.239Z,1.10
2019-05-03T09:33:54.792Z,1.03
2019-05-03T09:36:25.261Z,1.10
2019-05-03T09:38:54.866Z,1.50
2019-05-03T09:41:25.579Z,1.00
2019-05-03T09:43:55.417Z,1.20
2019-05-03T09:46:26.419Z,0.93
2019-05-03T09:49:03.560Z,1.37
2019-05-03T09:51:25.745Z,1.30
2019-05-03T09:53:56.078Z,1.30
2019-05-03T09:56:53.017Z,0.90
2019-05-03T09:59:14.676Z,1.07
2019-05-03T10:01:45.422Z,1.10
2019-05-03T10:04:13.925Z,1.10
2019-05-03T10:06:45.130Z,1.20
2019-05-03T10:09:15.432Z,0.87
2019-05-03T10:11:45.819Z,1.10
2019-05-03T10:14:19.834Z,0.97
2019-05-03T10:16:50.835Z,1.20
2019-05-03T10:19:19.581Z,0.87
2019-05-03T10:21:48.829Z,1.63
2019-05-03T10:24:17.589Z,1.47
2019-05-03T10:26:46.383Z,1.03
2019-05-03T10:29:16.276Z,1.40
2019-05-03T10:31:47.200Z,1.13
2019-05-03T10:34:16.905Z,1.27
2019-05-03T10:36:46.723Z,1.13
2019-05-03T10:39:16.105Z,1.27
2019-05-03T10:41:45.422Z,1.10
2019-05-03T10:44:15.051Z,1.90
2019-05-03T10:46:45.328Z,1.23
2019-05-03T10:49:20.280Z,1.43
2019-05-03T10:51:54.978Z,0.90
2019-05-03T10:54:24.385Z,1.40
2019-05-03T10:57:01.341Z,1.30
2019-05-03T10:59:30.254Z,1.07
2019-05-03T11:02:06.489Z,1.57
2019-05-03T11:04:35.710Z,1.10
2019-05-03T11:07:08.137Z,1.30
2019-05-03T11:09:48.519Z,1.40
2019-05-03T11:12:07.708Z,1.17
2019-05-03T11:14:36.554Z,1.20
2019-05-03T11:17:05.770Z,1.20
2019-05-03T11:19:34.883Z,0.97
2019-05-03T11:22:05.424Z,0.80
2019-05-03T11:24:36.582Z,1.10
2019-05-03T11:27:09.237Z,1.07
2019-05-03T11:29:38.618Z,1.27
2019-05-03T11:32:11.045Z,1.10
2019-05-03T11:34:47.573Z,1.00
2019-05-03T11:37:20.920Z,0.97
2019-05-03T11:39:50.768Z,0.90
2019-05-03T11:42:21.555Z,1.02
2019-05-03T11:44:51.232Z,1.40
2019-05-03T11:47:20.420Z,1.00
2019-05-03T11:49:49.819Z,1.53
2019-05-03T11:52:19.182Z,1.20
2019-05-03T11:54:56.158Z,1.30
2019-05-03T11:57:29.137Z,1.17
2019-05-03T11:59:58.669Z,1.20
2019-05-03T12:02:29.728Z,0.80
2019-05-03T12:05:07.689Z,1.23
2019-05-03T12:07:39.963Z,1.00
2019-05-03T12:10:26.718Z,1.10
2019-05-03T12:12:48.802Z,1.50
2019-05-03T12:15:22.829Z,1.10
2019-05-03T12:17:58.905Z,1.20
2019-05-03T12:20:32.394Z,0.80
2019-05-03T12:23:06.848Z,1.37
2019-05-03T12:25:39.221Z,1.30
2019-05-03T12:28:08.760Z,0.80
2019-05-03T12:30:41.187Z,1.00
2019-05-03T12:33:15.315Z,1.20
2019-05-03T12:35:47.695Z,1.20
2019-05-03T12:38:17.802Z,1.23
2019-05-03T12:40:47.362Z,1.23
2019-05-03T12:43:17.694Z,1.23
2019-05-03T12:45:47.114Z,1.83
2019-05-03T12:48:16.501Z,1.10
2019-05-03T12:50:46.720Z,1.30
2019-05-03T12:53:16.084Z,1.50
2019-05-03T12:55:45.607Z,1.23
2019-05-03T12:58:15.367Z,1.20
2019-05-03T13:01:01.827Z,1.07
2019-05-03T13:03:32.542Z,1.10
2019-05-03T13:06:04.519Z,1.30
2019-05-03T13:08:40.226Z,1.13
2019-05-03T13:11:09.515Z,1.17
2019-05-03T13:13:38.740Z,1.43
2019-05-03T13:16:10.142Z,1.13
2019-05-03T13:18:39.146Z,1.17
2019-05-03T13:21:08.185Z,1.30
2019-05-03T13:23:37.395Z,1.10
2019-05-03T13:26:06.689Z,1.63
2019-05-03T13:28:35.966Z,1.43
2019-05-03T13:31:06.191Z,1.10
2019-05-03T13:33:35.373Z,1.27
2019-05-03T13:36:06.287Z,1.50
2019-05-03T13:38:35.502Z,1.33
2019-05-03T13:41:06.589Z,1.57
2019-05-03T13:43:36.153Z,1.33
2019-05-03T13:46:05.786Z,0.97
2019-05-03T13:48:42.673Z,1.17
2019-05-03T13:51:06.246Z,1.50
2019-05-03T13:53:35.503Z,1.23
2019-05-03T13:56:05.045Z,1.17
2019-05-03T13:58:35.889Z,1.67
2019-05-03T14:01:05.860Z,1.30
2019-05-03T14:03:35.409Z,1.30
2019-05-03T14:06:08.572Z,1.27
2019-05-03T14:08:36.001Z,1.40
2019-05-03T14:11:05.325Z,0.90
2019-05-03T14:13:35.451Z,1.70
2019-05-03T14:16:05.932Z,0.97
2019-05-03T14:18:35.513Z,1.00
2019-05-03T14:21:06.856Z,1.17
2019-05-03T14:23:53.547Z,1.50
2019-05-03T14:26:24.445Z,1.17
2019-05-03T14:28:54.387Z,1.00
2019-05-03T14:31:25.035Z,1.03
2019-05-03T14:33:55.674Z,0.97
2019-05-03T14:36:25.119Z,0.90
2019-05-03T14:38:54.876Z,1.00
2019-05-03T14:41:25.421Z,1.40
2019-05-03T14:43:55.690Z,1.73
2019-05-03T14:46:32.739Z,0.90
2019-05-03T14:48:55.144Z,1.63
2019-05-03T14:51:25.383Z,1.23
2019-05-03T14:53:56.852Z,1.20
2019-05-03T14:56:26.387Z,0.90
2019-05-03T14:59:14.789Z,1.33
2019-05-03T15:01:48.573Z,1.30
2019-05-03T15:04:17.744Z,0.67
2019-05-03T15:06:46.544Z,1.20
2019-05-03T15:09:18.589Z,1.00
2019-05-03T15:11:45.958Z,1.23
2019-05-03T15:14:14.735Z,2.10
2019-05-03T15:16:45.042Z,1.60
2019-05-03T15:19:14.801Z,1.40
2019-05-03T15:21:45.273Z,1.53
2019-05-03T15:24:14.560Z,1.63
2019-05-03T15:26:44.768Z,1.43
2019-05-03T15:29:15.549Z,1.02
2019-05-03T15:31:44.808Z,1.40
2019-05-03T15:34:15.248Z,1.40
2019-05-03T15:36:49.983Z,2.03
2019-05-03T15:39:18.811Z,2.10
2019-05-03T15:41:47.674Z,1.33
2019-05-03T15:44:34.176Z,1.57
2019-05-03T15:47:09.627Z,1.17
2019-05-03T15:49:37.908Z,1.50
2019-05-03T15:52:07.264Z,1.43
2019-05-03T15:54:37.104Z,1.63
2019-05-03T15:57:14.521Z,1.77
2019-05-03T15:59:52.702Z,1.53
2019-05-03T16:02:25.015Z,1.00
2019-05-03T16:04:56.364Z,1.30
2019-05-03T16:07:30.319Z,1.20
2019-05-03T16:09:59.331Z,1.50
2019-05-03T16:12:28.235Z,1.53
2019-05-03T16:14:57.369Z,1.70
2019-05-03T16:17:26.182Z,1.60
2019-05-03T16:19:55.836Z,1.43
2019-05-03T16:22:28.539Z,0.87
2019-05-03T16:24:57.618Z,1.20
2019-05-03T16:27:31.226Z,1.50
2019-05-03T16:30:00.819Z,1.40
2019-05-03T16:32:29.817Z,1.27
2019-05-03T16:34:59.524Z,1.03
2019-05-03T16:37:28.348Z,1.20
2019-05-03T16:39:57.877Z,0.97
2019-05-03T16:42:26.732Z,1.53
2019-05-03T16:44:55.650Z,1.00
2019-05-03T16:47:25.019Z,1.20
2019-05-03T16:49:54.219Z,1.50
2019-05-03T16:52:27.853Z,1.30
2019-05-03T16:54:57.092Z,1.30
2019-05-03T16:57:28.888Z,1.17
2019-05-03T16:59:58.642Z,1.20
2019-05-03T17:02:27.988Z,1.33
2019-05-03T17:05:01.507Z,1.47
2019-05-03T17:07:42.455Z,0.97
2019-05-03T17:10:27.902Z,1.17
2019-05-03T17:12:57.038Z,1.00
2019-05-03T17:15:26.760Z,1.10
2019-05-03T17:17:55.794Z,0.70
2019-05-03T17:20:25.437Z,1.63
2019-05-03T17:23:04.485Z,1.42
2019-05-03T17:25:35.134Z,1.27
2019-05-03T17:28:06.712Z,1.63
2019-05-03T17:30:37.394Z,0.73
2019-05-03T17:33:06.388Z,1.50
2019-05-03T17:35:36.536Z,1.40
2019-05-03T17:38:05.672Z,1.60
2019-05-03T17:40:49.179Z,1.67
2019-05-03T17:43:23.233Z,1.57
2019-05-03T17:46:00.146Z,1.50
2019-05-03T17:48:29.673Z,1.60
2019-05-03T17:50:59.929Z,1.57
2019-05-03T17:53:40.070Z,1.60
2019-05-03T17:56:20.218Z,1.50
2019-05-03T17:58:51.207Z,1.67
2019-05-03T18:01:31.051Z,1.50
2019-05-03T18:04:08.856Z,1.60
2019-05-03T18:06:35.768Z,1.70
2019-05-03T18:09:14.758Z,1.57
2019-05-03T18:11:45.145Z,1.50
2019-05-03T18:14:17.695Z,1.92
2019-05-03T18:16:46.838Z,1.83
2019-05-03T18:19:15.652Z,1.33
2019-05-03T18:21:44.992Z,1.27
2019-05-03T18:24:15.367Z,1.35
2019-05-03T18:26:44.724Z,2.70
2019-05-03T18:29:14.687Z,1.53
2019-05-03T18:31:44.592Z,1.77
2019-05-03T18:34:21.548Z,1.85
2019-05-03T18:36:45.053Z,1.57
2019-05-03T18:39:15.196Z,2.25
2019-05-03T18:41:45.196Z,1.70
2019-05-03T18:44:25.372Z,2.17
2019-05-03T18:46:59.242Z,1.70
2019-05-03T18:49:29.959Z,1.45
2019-05-03T18:51:58.760Z,1.40
2019-05-03T18:54:27.902Z,1.20
2019-05-03T18:56:56.782Z,1.57
2019-05-03T18:59:28.562Z,1.53
2019-05-03T19:01:57.563Z,1.90
2019-05-03T19:04:34.735Z,1.75
2019-05-03T19:07:04.513Z,2.30
2019-05-03T19:09:40.406Z,2.03
2019-05-03T19:12:19.992Z,2.00
2019-05-03T19:14:50.461Z,1.40
2019-05-03T19:17:21.224Z,1.62
2019-05-03T19:19:57.673Z,1.60
2019-05-03T19:22:27.006Z,1.50
2019-05-03T19:24:56.444Z,2.20
2019-05-03T19:27:26.063Z,1.23
2019-05-03T19:29:55.541Z,2.10
2019-05-03T19:32:28.210Z,2.00
2019-05-03T19:34:58.566Z,1.70
2019-05-03T19:37:29.849Z,2.30
2019-05-03T19:39:58.822Z,2.43
2019-05-03T19:42:27.617Z,1.93
2019-05-03T19:44:56.748Z,1.40
2019-05-03T19:47:25.781Z,1.80
2019-05-03T19:49:55.313Z,1.73
2019-05-03T19:52:42.093Z,1.52
2019-05-03T19:55:15.404Z,2.10
2019-05-03T19:57:47.510Z,1.87
2019-05-03T20:00:17.985Z,1.60
2019-05-03T20:02:54.785Z,1.50
2019-05-03T20:05:48.248Z,2.33
2019-05-03T20:08:20.462Z,1.67
2019-05-03T20:10:50.526Z,1.97
2019-05-03T20:13:32.037Z,2.20
2019-05-03T20:15:51.849Z,1.73
2019-05-03T20:18:24.678Z,2.27
2019-05-03T20:20:55.344Z,2.37
2019-05-03T20:23:25.418Z,2.43
2019-05-03T20:25:58.580Z,1.93
2019-05-03T20:28:33.163Z,2.30
2019-05-03T20:31:04.998Z,2.17
2019-05-03T20:33:36.088Z,2.60
2019-05-03T20:36:12.748Z,2.30
2019-05-03T20:38:41.777Z,1.93
2019-05-03T20:41:10.676Z,1.87
2019-05-03T20:43:46.810Z,2.60
2019-05-03T20:46:17.244Z,3.27
2019-05-03T20:48:47.580Z,2.93
2019-05-03T20:51:16.434Z,2.70
2019-05-03T20:53:45.388Z,2.07
2019-05-03T20:56:15.449Z,2.37
2019-05-03T20:58:44.712Z,2.92
2019-05-03T21:01:15.300Z,2.75
2019-05-03T21:03:45.626Z,2.13
2019-05-03T21:06:16.495Z,2.05
2019-05-03T21:08:52.908Z,2.37
2019-05-03T21:11:19.968Z,2.05
2019-05-03T21:13:50.099Z,2.40
2019-05-03T21:16:22.095Z,2.25
2019-05-03T21:18:54.294Z,2.60
2019-05-03T21:21:29.344Z,2.85
2019-05-03T21:24:04.583Z,2.70
2019-05-03T21:26:34.613Z,2.37
2019-05-03T21:29:04.747Z,2.73
2019-05-03T21:31:35.239Z,2.47
2019-05-03T21:34:05.631Z,3.20
2019-05-03T21:36:34.932Z,2.93
2019-05-03T21:39:05.774Z,2.87
2019-05-03T21:41:35.246Z,2.73
2019-05-03T21:44:05.923Z,2.90
2019-05-03T21:46:36.229Z,2.73
2019-05-03T21:49:06.567Z,2.83
2019-05-03T21:51:35.342Z,3.00
2019-05-03T21:54:06.857Z,2.77
2019-05-03T21:56:49.779Z,2.40
2019-05-03T21:59:19.739Z,2.75
2019-05-03T22:01:51.088Z,2.98
2019-05-03T22:04:19.983Z,2.50
2019-05-03T22:06:49.954Z,2.60
2019-05-03T22:09:18.918Z,3.22
2019-05-03T22:11:48.987Z,2.87
2019-05-03T22:14:19.650Z,2.92
2019-05-03T22:16:50.705Z,2.80
2019-05-03T22:19:19.695Z,2.33
2019-05-03T22:21:55.251Z,2.43
2019-05-03T22:24:28.770Z,2.93
2019-05-03T22:27:07.001Z,2.63
2019-05-03T22:29:35.720Z,3.00
2019-05-03T22:32:05.410Z,2.87
2019-05-03T22:34:34.862Z,2.10
2019-05-03T22:37:03.796Z,2.33
2019-05-03T22:39:32.685Z,2.80
2019-05-03T22:42:01.711Z,2.43
2019-05-03T22:44:30.449Z,2.97
2019-05-03T22:46:59.197Z,2.20
2019-05-03T22:49:27.976Z,2.63
2019-05-03T22:51:56.748Z,2.50
2019-05-03T22:54:25.502Z,2.40
2019-05-03T22:56:55.475Z,2.87
2019-05-03T22:59:25.189Z,3.17
2019-05-03T23:01:54.749Z,2.30
2019-05-03T23:04:25.331Z,2.73
2019-05-03T23:06:55.628Z,3.10
2019-05-03T23:09:25.003Z,3.63
2019-05-03T23:11:55.434Z,2.90
2019-05-03T23:14:25.531Z,3.30
2019-05-03T23:16:54.484Z,2.60
2019-05-03T23:19:23.367Z,2.60
2019-05-03T23:21:54.446Z,3.07
2019-05-03T23:24:24.734Z,2.20
2019-05-03T23:26:53.547Z,2.63
2019-05-03T23:29:22.330Z,2.67
2019-05-03T23:31:51.104Z,2.33
2019-05-03T23:34:20.197Z,2.98
2019-05-03T23:36:49.078Z,3.25
2019-05-03T23:39:17.915Z,2.60
2019-05-03T23:41:46.678Z,2.23
2019-05-03T23:44:15.484Z,2.60
2019-05-03T23:47:02.075Z,3.13
2019-05-03T23:49:30.885Z,2.23
2019-05-03T23:52:04.535Z,2.83
2019-05-03T23:54:33.735Z,3.10
2019-05-03T23:57:02.458Z,2.57
2019-05-03T23:59:31.202Z,2.90
